createdAt,value
2019-04-21T00:00:12.790Z,124.90
2019-04-21T00:02:47.617Z,107.93
2019-04-21T00:05:40.215Z,108.27
2019-04-21T00:08:19.414Z,110.47
2019-04-21T00:10:40.059Z,110.63
2019-04-21T00:13:07.803Z,123.75
2019-04-21T00:15:33.548Z,129.40
2019-04-21T00:18:00.325Z,126.65
2019-04-21T00:20:41.275Z,115.60
2019-04-21T00:23:22.614Z,112.50
2019-04-21T00:25:49.934Z,127.25
2019-04-21T00:28:34.661Z,117.80
2019-04-21T00:30:57.014Z,109.00
2019-04-21T00:33:17.598Z,110.50
2019-04-21T00:35:49.889Z,117.10
2019-04-21T00:38:31.919Z,113.70
2019-04-21T00:41:00.416Z,116.93
2019-04-21T00:43:34.471Z,119.87
2019-04-21T00:45:57.816Z,126.75
2019-04-21T00:48:45.664Z,128.00
2019-04-21T00:51:33.318Z,108.00
2019-04-21T00:53:51.902Z,109.05
2019-04-21T00:56:28.839Z,108.60
2019-04-21T00:58:59.912Z,108.65
2019-04-21T01:01:26.762Z,103.97
2019-04-21T01:03:57.698Z,111.60
2019-04-21T01:06:35.207Z,100.60
2019-04-21T01:09:05.288Z,107.47
2019-04-21T01:11:38.982Z,109.78
2019-04-21T01:14:12.054Z,110.70
2019-04-21T01:16:57.737Z,123.78
2019-04-21T01:19:41.164Z,124.40
2019-04-21T01:22:01.844Z,110.73
2019-04-21T01:24:35.731Z,107.05
2019-04-21T01:27:10.085Z,105.44
2019-04-21T01:29:56.602Z,111.72
2019-04-21T01:32:29.277Z,113.75
2019-04-21T01:34:59.359Z,108.85
2019-04-21T01:37:39.916Z,115.07
2019-04-21T01:40:16.853Z,105.83
2019-04-21T01:42:43.571Z,104.78
2019-04-21T01:45:14.713Z,109.70
2019-04-21T01:47:46.249Z,110.03
2019-04-21T01:50:31.578Z,105.70
2019-04-21T01:53:02.016Z,106.58
2019-04-21T01:55:49.684Z,106.32
2019-04-21T01:58:15.337Z,110.12
2019-04-21T02:00:52.582Z,114.32
2019-04-21T02:03:41.713Z,123.82
2019-04-21T02:06:02.984Z,117.63
2019-04-21T02:08:27.528Z,110.17
2019-04-21T02:11:09.548Z,107.30
2019-04-21T02:13:35.196Z,107.25
2019-04-21T02:16:14.069Z,114.82
2019-04-21T02:18:42.447Z,118.40
2019-04-21T02:21:00.082Z,108.25
2019-04-21T02:23:46.378Z,106.80
2019-04-21T02:26:16.369Z,104.53
2019-04-21T02:28:50.022Z,104.40
2019-04-21T02:31:39.512Z,111.25
2019-04-21T02:36:32.819Z,103.25
2019-04-21T02:39:08.365Z,105.47
2019-04-21T02:44:00.162Z,109.97
2019-04-21T02:46:35.305Z,102.15
2019-04-21T02:49:13.049Z,105.00
2019-04-21T02:51:27.808Z,102.22
2019-04-21T02:56:37.896Z,97.62
2019-04-21T02:58:59.869Z,98.10
2019-04-21T03:01:50.528Z,105.30
2019-04-21T03:04:26.236Z,102.65
2019-04-21T03:07:07.190Z,99.90
2019-04-21T03:17:29.237Z,95.30
2019-04-21T03:22:25.041Z,102.97
2019-04-21T03:27:50.872Z,98.65
2019-04-21T03:35:32.790Z,95.97
2019-04-21T03:37:30.820Z,100.50
2019-04-21T03:39:59.799Z,102.05
2019-04-21T03:42:34.148Z,108.00
2019-04-21T03:45:06.697Z,95.45
2019-04-21T03:47:30.881Z,95.62
2019-04-21T03:50:12.801Z,99.17
2019-04-21T03:58:19.688Z,96.28
2019-04-21T04:01:02.839Z,110.27
2019-04-21T04:06:03.114Z,97.37
2019-04-21T04:16:20.108Z,96.53
2019-04-21T04:21:20.631Z,97.57
2019-04-21T04:23:58.053Z,102.07
2019-04-21T04:26:22.915Z,94.95
2019-04-21T04:28:54.591Z,97.15
2019-04-21T04:39:25.997Z,96.47
2019-04-21T04:47:20.584Z,93.95
2019-04-21T04:57:42.040Z,102.58
2019-04-21T05:00:03.472Z,96.28
2019-04-21T05:08:38.949Z,98.55
2019-04-21T05:09:52.322Z,103.92
2019-04-21T05:12:38.863Z,108.37
2019-04-21T05:17:48.242Z,101.18
2019-04-21T05:22:48.962Z,96.32
2019-04-21T05:25:03.478Z,103.50
2019-04-21T05:27:45.104Z,112.28
2019-04-21T05:30:24.850Z,100.00
2019-04-21T05:33:03.624Z,97.12
2019-04-21T05:35:49.326Z,99.55
2019-04-21T05:38:23.328Z,107.35
2019-04-21T05:40:48.364Z,101.30
2019-04-21T05:43:32.582Z,98.43
2019-04-21T05:46:21.338Z,106.20
2019-04-21T05:48:35.108Z,97.30
2019-04-21T05:50:59.157Z,94.32
2019-04-21T05:56:14.298Z,105.07
2019-04-21T05:58:37.843Z,97.57
2019-04-21T06:01:28.507Z,95.87
2019-04-21T06:04:03.622Z,89.28
2019-04-21T06:08:53.961Z,88.87
2019-04-21T06:11:28.973Z,92.12
2019-04-21T06:14:01.530Z,89.10
2019-04-21T06:16:40.701Z,91.73
2019-04-21T06:18:58.291Z,87.53
2019-04-21T06:21:28.174Z,93.00
2019-04-21T06:23:59.238Z,86.30
2019-04-21T06:26:51.821Z,92.23
2019-04-21T06:29:02.744Z,84.60
2019-04-21T06:32:09.380Z,85.50
2019-04-21T06:34:04.843Z,84.95
2019-04-21T06:39:30.477Z,85.07
2019-04-21T06:41:43.251Z,79.70
2019-04-21T06:46:39.315Z,84.80
2019-04-21T06:49:11.182Z,86.70
2019-04-21T06:51:46.844Z,85.50
2019-04-21T06:54:23.474Z,78.78
2019-04-21T06:56:51.530Z,89.20
2019-04-21T06:59:21.070Z,81.40
2019-04-21T07:01:56.708Z,83.60
2019-04-21T07:04:24.286Z,82.80
2019-04-21T07:06:56.243Z,87.50
2019-04-21T07:09:25.444Z,84.58
2019-04-21T07:11:51.510Z,78.67
2019-04-21T07:14:44.069Z,80.70
2019-04-21T07:17:05.085Z,80.12
2019-04-21T07:19:35.151Z,79.35
2019-04-21T07:21:57.367Z,72.10
2019-04-21T07:24:31.997Z,68.20
2019-04-21T07:27:02.602Z,72.95
2019-04-21T07:29:34.497Z,61.42
2019-04-21T07:34:36.005Z,57.25
2019-04-21T07:37:00.927Z,58.23
2019-04-21T07:39:29.889Z,58.33
2019-04-21T07:41:54.069Z,58.73
2019-04-21T07:44:31.923Z,57.55
2019-04-21T07:46:53.352Z,54.77
2019-04-21T07:49:53.718Z,53.05
2019-04-21T07:52:23.693Z,57.93
2019-04-21T07:55:07.936Z,61.90
2019-04-21T07:57:18.685Z,58.87
2019-04-21T08:00:06.561Z,54.25
2019-04-21T08:02:23.289Z,59.33
2019-04-21T08:07:30.808Z,51.33
2019-04-21T08:09:51.489Z,58.70
2019-04-21T08:12:19.732Z,52.43
2019-04-21T08:15:05.965Z,63.23
2019-04-21T08:17:24.507Z,51.75
2019-04-21T08:19:53.716Z,58.02
2019-04-21T08:22:25.938Z,56.33
2019-04-21T08:25:01.083Z,57.00
2019-04-21T08:27:25.804Z,54.13
2019-04-21T08:29:58.338Z,54.60
2019-04-21T08:32:38.562Z,53.78
2019-04-21T08:35:08.405Z,51.80
2019-04-21T08:37:24.156Z,51.40
2019-04-21T08:40:04.758Z,49.27
2019-04-21T08:42:26.698Z,49.93
2019-04-21T08:45:00.337Z,44.00
2019-04-21T08:47:25.627Z,45.75
2019-04-21T08:49:54.107Z,40.93
2019-04-21T08:52:36.906Z,42.67
2019-04-21T08:55:03.620Z,43.38
2019-04-21T08:57:47.615Z,38.92
2019-04-21T09:00:16.383Z,35.88
2019-04-21T09:05:04.720Z,37.80
2019-04-21T09:07:38.785Z,36.95
2019-04-21T09:10:06.334Z,39.67
2019-04-21T09:12:34.601Z,38.92
2019-04-21T09:15:08.596Z,37.83
2019-04-21T09:17:28.458Z,37.45
2019-04-21T09:20:13.793Z,34.40
2019-04-21T09:22:38.255Z,35.30
2019-04-21T09:25:14.556Z,34.10
2019-04-21T09:27:39.235Z,38.73
2019-04-21T09:29:53.970Z,34.10
2019-04-21T09:32:23.873Z,35.25
2019-04-21T09:34:51.292Z,31.82
2019-04-21T09:37:33.013Z,29.60
2019-04-21T09:39:52.425Z,28.52
2019-04-21T09:42:21.448Z,27.55
2019-04-21T09:44:55.236Z,25.33
2019-04-21T09:47:23.454Z,25.12
2019-04-21T09:49:49.801Z,24.67
2019-04-21T09:52:25.429Z,27.22
2019-04-21T09:54:58.577Z,24.35
2019-04-21T09:57:32.723Z,21.87
2019-04-21T10:00:02.444Z,23.07
2019-04-21T10:02:32.792Z,20.62
2019-04-21T10:04:50.936Z,18.70
2019-04-21T10:07:26.382Z,19.35
2019-04-21T10:09:50.012Z,20.20
2019-04-21T10:12:18.465Z,18.25
2019-04-21T10:14:47.364Z,19.00
2019-04-21T10:17:21.710Z,17.43
2019-04-21T10:19:50.704Z,18.62
2019-04-21T10:22:19.160Z,17.50
2019-04-21T10:24:48.714Z,18.40
2019-04-21T10:27:17.323Z,17.02
2019-04-21T10:29:47.227Z,16.25
2019-04-21T10:32:18.665Z,17.52
2019-04-21T10:34:47.400Z,15.75
2019-04-21T10:37:16.669Z,14.87
2019-04-21T10:39:45.347Z,14.90
2019-04-21T10:42:15.508Z,13.50
2019-04-21T10:44:45.038Z,14.45
2019-04-21T10:47:14.509Z,13.87
2019-04-21T10:49:42.923Z,13.85
2019-04-21T10:52:22.867Z,13.53
2019-04-21T10:55:12.880Z,14.20
2019-04-21T10:57:30.443Z,12.85
2019-04-21T10:59:59.881Z,13.75
2019-04-21T11:02:39.467Z,12.23
2019-04-21T11:05:09.064Z,11.80
2019-04-21T11:08:07.815Z,12.85
2019-04-21T11:10:25.658Z,12.10
2019-04-21T11:12:54.698Z,11.40
2019-04-21T11:15:23.390Z,11.73
2019-04-21T11:17:52.330Z,10.80
2019-04-21T11:20:21.057Z,12.58
2019-04-21T11:22:49.704Z,13.18
2019-04-21T11:25:18.074Z,11.77
2019-04-21T11:27:47.023Z,12.60
2019-04-21T11:30:17.980Z,13.00
2019-04-21T11:32:47.666Z,11.88
2019-04-21T11:35:17.134Z,13.75
2019-04-21T11:37:46.186Z,13.35
2019-04-21T11:40:17.839Z,13.43
2019-04-21T11:42:46.090Z,13.57
2019-04-21T11:45:24.357Z,13.83
2019-04-21T11:48:12.353Z,14.28
2019-04-21T11:50:41.384Z,13.62
2019-04-21T11:53:10.633Z,12.07
2019-04-21T11:55:43.220Z,14.68
2019-04-21T11:58:09.932Z,12.58
2019-04-21T12:00:39.822Z,11.40
2019-04-21T12:03:09.213Z,12.82
2019-04-21T12:05:37.632Z,14.10
2019-04-21T12:08:18.856Z,13.70
2019-04-21T12:10:37.641Z,14.53
2019-04-21T12:13:07.420Z,14.50
2019-04-21T12:15:36.779Z,15.13
2019-04-21T12:18:06.022Z,14.30
2019-04-21T12:20:35.540Z,12.28
2019-04-21T12:23:04.663Z,12.63
2019-04-21T12:25:40.863Z,12.17
2019-04-21T12:28:10.033Z,11.33
2019-04-21T12:30:39.875Z,13.28
2019-04-21T12:33:14.032Z,13.65
2019-04-21T12:35:43.813Z,13.65
2019-04-21T12:38:13.073Z,13.03
2019-04-21T12:40:42.298Z,13.50
2019-04-21T12:43:10.812Z,14.87
2019-04-21T12:45:39.981Z,13.58
2019-04-21T12:48:08.499Z,11.93
2019-04-21T12:50:36.912Z,11.50
2019-04-21T12:53:05.458Z,12.07
2019-04-21T12:55:37.465Z,11.17
2019-04-21T12:58:05.247Z,11.70
2019-04-21T13:00:34.944Z,10.23
2019-04-21T13:03:03.660Z,11.05
2019-04-21T13:05:33.679Z,10.78
2019-04-21T13:08:02.200Z,11.08
2019-04-21T13:10:31.859Z,11.03
2019-04-21T13:13:00.180Z,10.10
2019-04-21T13:15:29.336Z,10.55
2019-04-21T13:17:58.500Z,9.05
2019-04-21T13:20:27.447Z,9.75
2019-04-21T13:22:57.706Z,9.20
2019-04-21T13:25:27.735Z,8.67
2019-04-21T13:27:56.487Z,8.20
2019-04-21T13:30:24.820Z,6.95
2019-04-21T13:32:53.418Z,7.03
2019-04-21T13:35:23.269Z,8.30
2019-04-21T13:37:52.311Z,7.37
2019-04-21T13:40:45.025Z,7.65
2019-04-21T13:42:58.831Z,7.07
2019-04-21T13:45:25.967Z,8.60
2019-04-21T13:47:54.728Z,7.53
2019-04-21T13:50:23.664Z,6.95
2019-04-21T13:52:52.361Z,7.35
2019-04-21T13:55:21.340Z,7.70
2019-04-21T13:57:50.526Z,7.12
2019-04-21T14:00:19.421Z,7.27
2019-04-21T14:02:48.997Z,8.45
2019-04-21T14:05:18.156Z,7.35
2019-04-21T14:07:46.541Z,8.70
2019-04-21T14:10:16.127Z,7.78
2019-04-21T14:12:44.912Z,7.12
2019-04-21T14:15:14.514Z,9.17
2019-04-21T14:17:43.082Z,9.90
2019-04-21T14:20:11.443Z,9.33
2019-04-21T14:22:40.038Z,9.23
2019-04-21T14:25:09.825Z,10.80
2019-04-21T14:27:38.561Z,9.75
2019-04-21T14:30:10.299Z,9.70
2019-04-21T14:32:40.093Z,9.83
2019-04-21T14:35:09.131Z,10.25
2019-04-21T14:37:38.368Z,9.40
2019-04-21T14:40:13.640Z,10.70
2019-04-21T14:42:40.191Z,11.15
2019-04-21T14:45:10.238Z,11.65
2019-04-21T14:47:46.356Z,9.50
2019-04-21T14:50:26.285Z,10.50
2019-04-21T14:53:20.238Z,11.17
2019-04-21T14:55:51.107Z,10.37
2019-04-21T14:58:19.689Z,10.40
2019-04-21T15:00:55.712Z,10.78
2019-04-21T15:03:32.090Z,11.57
2019-04-21T15:06:01.095Z,11.10
2019-04-21T15:08:29.583Z,10.80
2019-04-21T15:11:01.133Z,11.60
2019-04-21T15:13:30.040Z,9.25
2019-04-21T15:15:58.521Z,10.63
2019-04-21T15:18:28.563Z,7.92
2019-04-21T15:20:57.414Z,10.23
2019-04-21T15:23:28.613Z,9.28
2019-04-21T15:25:57.935Z,9.28
2019-04-21T15:28:31.598Z,11.33
2019-04-21T15:30:56.698Z,10.88
2019-04-21T15:33:26.581Z,10.43
2019-04-21T15:35:55.443Z,10.73
2019-04-21T15:38:23.823Z,11.33
2019-04-21T15:40:57.065Z,11.38
2019-04-21T15:43:24.438Z,10.25
2019-04-21T15:45:57.033Z,9.88
2019-04-21T15:48:26.692Z,10.43
2019-04-21T15:50:56.676Z,9.50
2019-04-21T15:53:27.802Z,9.15
2019-04-21T15:55:59.128Z,8.48
2019-04-21T15:58:44.468Z,7.78
2019-04-21T16:01:24.846Z,8.45
2019-04-21T16:03:58.276Z,7.65
2019-04-21T16:06:27.723Z,8.00
2019-04-21T16:08:58.985Z,8.43
2019-04-21T16:11:26.203Z,8.65
2019-04-21T16:13:55.491Z,8.32
2019-04-21T16:16:30.105Z,11.73
2019-04-21T16:18:58.329Z,10.77
2019-04-21T16:21:29.529Z,11.80
2019-04-21T16:23:58.350Z,10.43
2019-04-21T16:26:30.798Z,10.10
2019-04-21T16:28:59.385Z,9.55
2019-04-21T16:31:28.096Z,9.90
2019-04-21T16:33:58.764Z,10.13
2019-04-21T16:36:27.497Z,9.18
2019-04-21T16:38:57.626Z,9.88
2019-04-21T16:41:28.666Z,7.95
2019-04-21T16:43:58.879Z,12.68
2019-04-21T16:46:27.552Z,11.12
2019-04-21T16:48:57.796Z,9.10
2019-04-21T16:51:28.376Z,10.78
2019-04-21T16:54:01.919Z,11.70
2019-04-21T16:56:33.015Z,11.30
2019-04-21T16:59:03.643Z,11.05
2019-04-21T17:01:38.467Z,8.85
2019-04-21T17:04:06.885Z,10.00
2019-04-21T17:06:38.256Z,8.43
2019-04-21T17:09:08.477Z,10.00
2019-04-21T17:11:38.055Z,10.20
2019-04-21T17:14:24.691Z,10.58
2019-04-21T17:16:57.582Z,9.83
2019-04-21T17:19:18.021Z,9.28
2019-04-21T17:21:41.641Z,9.20
2019-04-21T17:24:10.595Z,9.27
2019-04-21T17:26:41.121Z,7.97
2019-04-21T17:29:10.283Z,10.03
2019-04-21T17:31:39.259Z,8.58
2019-04-21T17:34:21.807Z,8.93
2019-04-21T17:36:50.953Z,7.83
2019-04-21T17:39:26.914Z,8.20
2019-04-21T17:42:13.010Z,8.95
2019-04-21T17:44:27.808Z,8.50
2019-04-21T17:47:05.277Z,8.70
2019-04-21T17:49:30.918Z,8.05
2019-04-21T17:52:16.285Z,10.25
2019-04-21T17:54:48.890Z,10.98
2019-04-21T17:57:36.608Z,8.75
2019-04-21T18:00:11.632Z,9.13
2019-04-21T18:02:42.921Z,9.50
2019-04-21T18:05:16.621Z,10.10
2019-04-21T18:10:07.622Z,10.05
2019-04-21T18:12:36.125Z,10.33
2019-04-21T18:15:02.635Z,10.68
2019-04-21T18:17:22.786Z,10.95
2019-04-21T18:19:53.621Z,9.60
2019-04-21T18:22:38.569Z,10.82
2019-04-21T18:25:13.817Z,10.43
2019-04-21T18:27:38.788Z,10.23
2019-04-21T18:30:46.831Z,10.23
2019-04-21T18:33:22.239Z,10.23
2019-04-21T18:36:06.236Z,15.72
2019-04-21T18:39:02.610Z,12.33
2019-04-21T18:41:13.468Z,12.18
2019-04-21T18:44:19.705Z,12.23
2019-04-21T18:46:40.007Z,15.28
2019-04-21T18:48:57.925Z,18.12
2019-04-21T18:51:39.251Z,14.10
2019-04-21T18:54:26.945Z,15.25
2019-04-21T18:56:33.814Z,14.58
2019-04-21T18:59:04.423Z,14.10
2019-04-21T19:01:35.191Z,13.70
2019-04-21T19:04:05.379Z,13.47
2019-04-21T19:06:56.150Z,14.00
2019-04-21T19:09:24.608Z,13.62
2019-04-21T19:11:59.581Z,13.88
2019-04-21T19:17:31.870Z,14.10
2019-04-21T19:22:04.908Z,13.20
2019-04-21T19:24:39.257Z,14.77
2019-04-21T19:27:11.940Z,14.18
2019-04-21T19:29:34.634Z,16.25
2019-04-21T19:32:08.902Z,14.65
2019-04-21T19:34:24.494Z,15.25
2019-04-21T19:36:57.614Z,15.23
2019-04-21T19:39:35.000Z,14.90
2019-04-21T19:42:00.758Z,16.80
2019-04-21T19:44:38.224Z,15.57
2019-04-21T19:47:11.570Z,15.03
2019-04-21T19:49:46.409Z,18.00
2019-04-21T19:51:59.594Z,19.15
2019-04-21T19:54:29.926Z,17.40
2019-04-21T19:56:51.411Z,16.20
2019-04-21T19:59:30.895Z,18.30
2019-04-21T20:01:51.332Z,18.48
2019-04-21T20:04:20.044Z,18.00
2019-04-21T20:07:01.030Z,18.17
2019-04-21T20:09:37.048Z,18.48
2019-04-21T20:12:03.620Z,20.85
2019-04-21T20:14:51.056Z,22.50
2019-04-21T20:17:00.582Z,19.80
2019-04-21T20:19:19.634Z,20.92
2019-04-21T20:21:51.149Z,22.02
2019-04-21T20:24:25.077Z,24.05
2019-04-21T20:26:59.974Z,22.20
2019-04-21T20:29:37.451Z,22.25
2019-04-21T20:32:16.013Z,23.67
2019-04-21T20:34:38.656Z,24.00
2019-04-21T20:37:09.583Z,22.93
2019-04-21T20:39:24.193Z,24.67
2019-04-21T20:42:11.386Z,23.50
2019-04-21T20:44:42.300Z,25.25
2019-04-21T20:47:03.845Z,27.30
2019-04-21T20:49:34.135Z,22.27
2019-04-21T20:52:14.094Z,25.12
2019-04-21T20:54:41.064Z,24.15
2019-04-21T20:57:11.250Z,22.22
2019-04-21T20:59:31.710Z,22.60
2019-04-21T21:02:10.133Z,23.50
2019-04-21T21:04:32.646Z,22.02
2019-04-21T21:07:16.270Z,22.30
2019-04-21T21:09:41.460Z,21.80
2019-04-21T21:12:22.331Z,22.30
2019-04-21T21:14:39.141Z,20.55
2019-04-21T21:17:13.214Z,20.80
2019-04-21T21:19:40.082Z,20.63
2019-04-21T21:22:05.978Z,20.72
2019-04-21T21:24:49.313Z,22.00
2019-04-21T21:27:09.778Z,20.20
2019-04-21T21:29:40.482Z,22.10
2019-04-21T21:32:16.227Z,21.45
2019-04-21T21:34:47.433Z,20.05
2019-04-21T21:37:21.252Z,21.68
2019-04-21T21:39:48.850Z,24.27
2019-04-21T21:41:58.624Z,22.55
2019-04-21T21:44:27.963Z,22.35
2019-04-21T21:47:06.550Z,22.65
2019-04-21T21:49:38.230Z,23.62
2019-04-21T21:52:04.402Z,20.80
2019-04-21T21:54:25.725Z,22.95
2019-04-21T21:56:54.566Z,22.73
2019-04-21T21:59:27.862Z,20.65
2019-04-21T22:01:54.879Z,17.85
2019-04-21T22:04:26.857Z,21.37
2019-04-21T22:06:58.269Z,21.68
2019-04-21T22:09:24.198Z,22.58
2019-04-21T22:11:57.912Z,18.80
2019-04-21T22:14:32.649Z,24.20
2019-04-21T22:17:11.078Z,20.05
2019-04-21T22:19:41.696Z,22.87
2019-04-21T22:22:13.966Z,23.67
2019-04-21T22:24:44.945Z,22.52
2019-04-21T22:26:54.859Z,24.70
2019-04-21T22:29:23.502Z,21.45
2019-04-21T22:31:59.735Z,26.30
2019-04-21T22:34:27.650Z,25.08
2019-04-21T22:37:01.396Z,25.08
2019-04-21T22:39:43.662Z,23.67
2019-04-21T22:42:01.859Z,25.40
2019-04-21T22:44:22.780Z,24.10
2019-04-21T22:47:02.162Z,26.15
2019-04-21T22:49:22.303Z,23.02
2019-04-21T22:51:52.455Z,21.05
2019-04-21T22:54:28.685Z,26.48
2019-04-21T22:57:01.593Z,27.48
2019-04-21T22:59:24.131Z,21.68
2019-04-21T23:01:54.351Z,24.60
2019-04-21T23:04:25.471Z,21.13
2019-04-21T23:06:59.330Z,26.45
2019-04-21T23:09:24.690Z,26.80
2019-04-21T23:11:56.222Z,25.77
2019-04-21T23:14:23.724Z,29.07
2019-04-21T23:16:54.247Z,28.23
2019-04-21T23:19:35.678Z,33.48
2019-04-21T23:22:09.611Z,28.90
2019-04-21T23:24:45.519Z,33.30
2019-04-21T23:27:06.379Z,41.20
2019-04-21T23:29:49.789Z,61.00
2019-04-21T23:32:09.529Z,59.70
2019-04-21T23:34:26.622Z,74.67
2019-04-21T23:37:00.653Z,68.07
2019-04-21T23:39:27.360Z,71.40
2019-04-21T23:41:55.380Z,54.90
2019-04-21T23:44:24.115Z,42.95
2019-04-21T23:46:57.568Z,56.42
2019-04-21T23:49:35.464Z,57.23
2019-04-21T23:52:00.488Z,61.33
2019-04-21T23:54:23.428Z,82.62
2019-04-21T23:56:52.068Z,88.80
2019-04-21T23:59:20.709Z,80.65
